createdAt,value
2015-12-10T00:00:39.463Z,1027.2
2015-12-10T00:01:39.402Z,1027.2
2015-12-10T00:02:39.358Z,1027.2
2015-12-10T00:03:39.283Z,1027.2
2015-12-10T00:04:39.224Z,1027.1
2015-12-10T00:05:39.164Z,1027.1
2015-12-10T00:06:39.120Z,1027.2
2015-12-10T00:07:39.060Z,1027.1
2015-12-10T00:08:39.236Z,1027.1
2015-12-10T00:09:38.175Z,1027.1
2015-12-10T00:10:38.881Z,1027.1
2015-12-10T00:11:38.838Z,1027.1
2015-12-10T00:12:38.778Z,1027
2015-12-10T00:13:38.702Z,1027.1
2015-12-10T00:14:38.658Z,1027.1
2015-12-10T00:15:38.598Z,1027.1
2015-12-10T00:16:38.538Z,1027.1
2015-12-10T00:17:38.463Z,1026.9
2015-12-10T00:18:38.419Z,1027
2015-12-10T00:19:38.360Z,1027.1
2015-12-10T00:20:38.316Z,1027
2015-12-10T00:21:38.240Z,1027.1
2015-12-10T00:22:38.195Z,1027
2015-12-10T00:23:38.121Z,1026.9
2015-12-10T00:24:38.076Z,1026.9
2015-12-10T00:25:38.016Z,1026.9
2015-12-10T00:26:38.191Z,1027
2015-12-10T00:27:37.896Z,1027
2015-12-10T00:28:37.838Z,1026.9
2015-12-10T00:29:37.980Z,1026.9
2015-12-10T00:30:37.733Z,1027.1
2015-12-10T00:31:37.865Z,1027
2015-12-10T00:32:37.608Z,1027
2015-12-10T00:33:37.549Z,1026.9
2015-12-10T00:34:37.489Z,1026.9
2015-12-10T00:35:37.445Z,1026.9
2015-12-10T00:36:37.573Z,1027
2015-12-10T00:37:37.326Z,1026.9
2015-12-10T00:38:37.250Z,1027
2015-12-10T00:39:37.206Z,1026.9
2015-12-10T00:40:37.147Z,1026.9
2015-12-10T00:41:37.321Z,1026.9
2015-12-10T00:42:37.027Z,1026.9
2015-12-10T00:43:36.983Z,1026.9
2015-12-10T00:44:36.938Z,1026.9
2015-12-10T00:45:36.879Z,1027
2015-12-10T00:46:36.804Z,1026.9
2015-12-10T00:47:36.744Z,1027
2015-12-10T00:48:36.684Z,1026.9
2015-12-10T00:49:36.722Z,1026.8
2015-12-10T00:50:36.599Z,1026.9
2015-12-10T00:51:36.508Z,1026.8
2015-12-10T00:52:36.448Z,1026.9
2015-12-10T00:53:36.389Z,1027
2015-12-10T00:54:36.344Z,1026.8
2015-12-10T00:55:36.290Z,1027
2015-12-10T00:56:36.214Z,1026.9
2015-12-10T00:57:36.171Z,1026.9
2015-12-10T00:58:36.095Z,1026.9
2015-12-10T00:59:36.051Z,1026.9
2015-12-10T01:00:36.009Z,1026.9
2015-12-10T01:01:35.949Z,1026.9
2015-12-10T01:02:35.873Z,1026.8
2015-12-10T01:03:35.815Z,1026.9
2015-12-10T01:04:35.770Z,1026.9
2015-12-10T01:05:35.709Z,1026.9
2015-12-10T01:06:35.650Z,1026.8
2015-12-10T01:07:35.590Z,1026.7
2015-12-10T01:08:35.531Z,1026.8
2015-12-10T01:09:35.705Z,1026.8
2015-12-10T01:10:35.408Z,1026.7
2015-12-10T01:11:35.364Z,1026.7
2015-12-10T01:12:35.304Z,1026.8
2015-12-10T01:13:35.229Z,1026.7
2015-12-10T01:14:35.170Z,1026.8
2015-12-10T01:15:35.140Z,1026.8
2015-12-10T01:16:35.081Z,1026.8
2015-12-10T01:17:35.020Z,1026.9
2015-12-10T01:18:34.945Z,1026.9
2015-12-10T01:19:34.887Z,1026.7
2015-12-10T01:20:34.826Z,1026.8
2015-12-10T01:21:34.782Z,1026.8
2015-12-10T01:22:37.425Z,1026.9
2015-12-10T01:23:34.647Z,1026.9
2015-12-10T01:24:34.603Z,1027
2015-12-10T01:25:34.542Z,1026.9
2015-12-10T01:26:34.483Z,1027
2015-12-10T01:27:34.423Z,1026.9
2015-12-10T01:28:34.364Z,1027
2015-12-10T01:29:34.304Z,1026.9
2015-12-10T01:30:34.245Z,1026.8
2015-12-10T01:31:34.200Z,1026.9
2015-12-10T01:32:34.125Z,1026.9
2015-12-10T01:33:34.081Z,1026.8
2015-12-10T01:34:34.005Z,1026.8
2015-12-10T01:35:33.961Z,1026.9
2015-12-10T01:36:33.902Z,1026.8
2015-12-10T01:37:33.872Z,1026.8
2015-12-10T01:38:33.783Z,1026.8
2015-12-10T01:39:33.707Z,1026.9
2015-12-10T01:40:33.663Z,1026.8
2015-12-10T01:41:33.603Z,1026.8
2015-12-10T01:42:33.558Z,1026.8
2015-12-10T01:43:33.718Z,1026.8
2015-12-10T01:44:33.424Z,1026.8
2015-12-10T01:45:33.364Z,1026.7
2015-12-10T01:46:33.320Z,1026.8
2015-12-10T01:47:33.261Z,1026.8
2015-12-10T01:48:33.247Z,1026.8
2015-12-10T01:49:32.609Z,1026.8
2015-12-10T01:50:33.111Z,1026.8
2015-12-10T01:51:33.037Z,1026.7
2015-12-10T01:52:32.975Z,1026.8
2015-12-10T01:53:33.133Z,1026.8
2015-12-10T01:54:33.073Z,1026.6
2015-12-10T01:55:32.030Z,1026.8
2015-12-10T01:56:32.751Z,1026.7
2015-12-10T01:57:32.675Z,1026.7
2015-12-10T01:58:32.616Z,1026.7
2015-12-10T01:59:32.572Z,1026.6
2015-12-10T02:00:32.507Z,1026.8
2015-12-10T02:01:32.447Z,1026.7
2015-12-10T02:02:32.388Z,1026.7
2015-12-10T02:03:32.328Z,1026.7
2015-12-10T02:04:32.269Z,1026.8
2015-12-10T02:05:32.208Z,1026.9
2015-12-10T02:06:32.164Z,1026.8
2015-12-10T02:07:32.089Z,1026.8
2015-12-10T02:08:32.030Z,1026.6
2015-12-10T02:09:32.173Z,1026.8
2015-12-10T02:10:31.910Z,1026.8
2015-12-10T02:11:31.850Z,1026.8
2015-12-10T02:12:31.790Z,1026.7
2015-12-10T02:13:31.746Z,1026.6
2015-12-10T02:14:31.889Z,1026.6
2015-12-10T02:15:31.626Z,1026.5
2015-12-10T02:16:31.582Z,1026.6
2015-12-10T02:17:31.554Z,1026.7
2015-12-10T02:18:31.447Z,1026.6
2015-12-10T02:19:31.388Z,1026.6
2015-12-10T02:20:31.344Z,1026.5
2015-12-10T02:21:31.128Z,1026.5
2015-12-10T02:22:31.208Z,1026.6
2015-12-10T02:23:31.164Z,1026.6
2015-12-10T02:24:31.104Z,1026.5
2015-12-10T02:25:31.044Z,1026.4
2015-12-10T02:26:30.266Z,1026.4
2015-12-10T02:27:30.925Z,1026.4
2015-12-10T02:28:30.881Z,1026.6
2015-12-10T02:29:31.008Z,1026.2
2015-12-10T02:30:30.946Z,1026.3
2015-12-10T02:31:30.714Z,1026.4
2015-12-10T02:32:30.624Z,1026.4
2015-12-10T02:33:30.580Z,1026.3
2015-12-10T02:34:30.519Z,1026.3
2015-12-10T02:35:30.460Z,1026.3
2015-12-10T02:36:30.416Z,1026.3
2015-12-10T02:37:30.340Z,1026.4
2015-12-10T02:38:30.484Z,1026.2
2015-12-10T02:39:30.220Z,1026.2
2015-12-10T02:40:30.176Z,1026.2
2015-12-10T02:41:30.118Z,1026.1
2015-12-10T02:42:30.057Z,1026.2
2015-12-10T02:43:29.998Z,1026.2
2015-12-10T02:44:29.938Z,1026.1
2015-12-10T02:45:29.878Z,1026.2
2015-12-10T02:46:29.849Z,1026
2015-12-10T02:47:29.759Z,1026.2
2015-12-10T02:48:28.965Z,1026.2
2015-12-10T02:49:28.873Z,1026.1
2015-12-10T02:50:29.595Z,1026.2
2015-12-10T02:51:29.535Z,1026.1
2015-12-10T02:52:29.460Z,1026
2015-12-10T02:53:29.416Z,1026
2015-12-10T02:54:29.887Z,1026.1
2015-12-10T02:55:29.296Z,1025.8
2015-12-10T02:56:29.237Z,1026.1
2015-12-10T02:57:29.177Z,1025.9
2015-12-10T02:58:29.117Z,1025.9
2015-12-10T02:59:29.056Z,1026
2015-12-10T03:00:29.012Z,1026
2015-12-10T03:01:28.953Z,1026.1
2015-12-10T03:02:28.878Z,1025.9
2015-12-10T03:03:29.053Z,1026.1
2015-12-10T03:04:28.774Z,1025.9
2015-12-10T03:05:28.714Z,1025.9
2015-12-10T03:06:28.670Z,1026
2015-12-10T03:07:28.578Z,1025.8
2015-12-10T03:08:28.534Z,1025.8
2015-12-10T03:09:28.476Z,1025.9
2015-12-10T03:10:28.415Z,1025.9
2015-12-10T03:11:28.387Z,1025.8
2015-12-10T03:12:28.311Z,1025.8
2015-12-10T03:13:28.251Z,1025.8
2015-12-10T03:14:28.192Z,1025.8
2015-12-10T03:15:28.132Z,1025.8
2015-12-10T03:16:28.104Z,1025.8
2015-12-10T03:17:28.012Z,1025.8
2015-12-10T03:18:27.953Z,1025.8
2015-12-10T03:19:27.125Z,1025.8
2015-12-10T03:20:27.846Z,1025.8
2015-12-10T03:21:27.802Z,1025.6
2015-12-10T03:22:27.914Z,1025.8
2015-12-10T03:23:27.651Z,1025.7
2015-12-10T03:24:27.608Z,1025.7
2015-12-10T03:25:27.547Z,1025.6
2015-12-10T03:26:27.488Z,1025.7
2015-12-10T03:27:27.428Z,1025.5
2015-12-10T03:28:27.602Z,1025.6
2015-12-10T03:29:27.309Z,1025.7
2015-12-10T03:30:27.249Z,1025.6
2015-12-10T03:31:27.220Z,1025.6
2015-12-10T03:32:27.130Z,1025.6
2015-12-10T03:33:27.086Z,1025.8
2015-12-10T03:34:27.025Z,1025.5
2015-12-10T03:35:26.966Z,1025.7
2015-12-10T03:36:26.937Z,1025.7
2015-12-10T03:37:26.831Z,1025.8
2015-12-10T03:38:26.787Z,1025.7
2015-12-10T03:39:26.727Z,1025.5
2015-12-10T03:40:26.683Z,1025.7
2015-12-10T03:41:26.608Z,1025.8
2015-12-10T03:42:26.563Z,1025.7
2015-12-10T03:43:26.489Z,1025.5
2015-12-10T03:44:26.458Z,1025.7
2015-12-10T03:45:26.399Z,1025.7
2015-12-10T03:46:26.324Z,1025.7
2015-12-10T03:47:26.280Z,1025.7
2015-12-10T03:48:26.438Z,1025.6
2015-12-10T03:49:26.347Z,1025.7
2015-12-10T03:50:26.100Z,1025.6
2015-12-10T03:51:26.025Z,1025.5
2015-12-10T03:52:26.169Z,1025.8
2015-12-10T03:53:25.906Z,1025.6
2015-12-10T03:54:25.878Z,1025.7
2015-12-10T03:55:25.083Z,1025.5
2015-12-10T03:56:25.742Z,1025.5
2015-12-10T03:57:25.683Z,1025.6
2015-12-10T03:58:25.620Z,1025.5
2015-12-10T03:59:25.576Z,1025.6
2015-12-10T04:00:25.500Z,1025.5
2015-12-10T04:01:25.457Z,1025.6
2015-12-10T04:02:25.397Z,1025.4
2015-12-10T04:03:25.337Z,1025.6
2015-12-10T04:04:25.277Z,1025.5
2015-12-10T04:05:24.468Z,1025.5
2015-12-10T04:06:25.158Z,1025.4
2015-12-10T04:07:25.114Z,1025.6
2015-12-10T04:08:25.038Z,1025.4
2015-12-10T04:09:25.010Z,1025.4
2015-12-10T04:10:25.153Z,1025.5
2015-12-10T04:11:24.874Z,1025.5
2015-12-10T04:12:24.815Z,1025.4
2015-12-10T04:13:24.755Z,1025.4
2015-12-10T04:14:24.696Z,1025.4
2015-12-10T04:15:24.635Z,1025.5
2015-12-10T04:16:24.576Z,1025.5
2015-12-10T04:17:24.719Z,1025.4
2015-12-10T04:18:24.457Z,1025.4
2015-12-10T04:19:24.412Z,1025.5
2015-12-10T04:20:24.338Z,1025.4
2015-12-10T04:21:24.324Z,1025.4
2015-12-10T04:22:24.218Z,1025.3
2015-12-10T04:23:24.174Z,1025.5
2015-12-10T04:24:24.113Z,1025.3
2015-12-10T04:25:24.038Z,1025.5
2015-12-10T04:26:23.993Z,1025.4
2015-12-10T04:27:23.950Z,1025.4
2015-12-10T04:28:23.874Z,1025.4
2015-12-10T04:29:23.830Z,1025.4
2015-12-10T04:30:23.771Z,1025.5
2015-12-10T04:31:23.711Z,1025.5
2015-12-10T04:32:23.652Z,1025.4
2015-12-10T04:33:23.591Z,1025.5
2015-12-10T04:34:23.547Z,1025.5
2015-12-10T04:35:23.471Z,1025.4
2015-12-10T04:36:23.412Z,1025.4
2015-12-10T04:37:23.540Z,1025.5
2015-12-10T04:38:23.290Z,1025.5
2015-12-10T04:39:23.245Z,1025.4
2015-12-10T04:40:23.171Z,1025.4
2015-12-10T04:41:23.110Z,1025.4
2015-12-10T04:42:23.051Z,1025.3
2015-12-10T04:43:23.006Z,1025.4
2015-12-10T04:44:22.948Z,1025.3
2015-12-10T04:45:22.887Z,1025.4
2015-12-10T04:46:22.843Z,1025.4
2015-12-10T04:47:22.768Z,1025.4
2015-12-10T04:48:22.723Z,1025.3
2015-12-10T04:49:22.664Z,1025.4
2015-12-10T04:50:22.823Z,1025.5
2015-12-10T04:51:22.545Z,1025.4
2015-12-10T04:52:22.485Z,1025.3
2015-12-10T04:53:22.441Z,1025.4
2015-12-10T04:54:22.365Z,1025.4
2015-12-10T04:55:22.539Z,1025.4
2015-12-10T04:56:22.246Z,1025.4
2015-12-10T04:57:22.186Z,1025.3
2015-12-10T04:58:22.157Z,1025.5
2015-12-10T04:59:22.067Z,1025.3
2015-12-10T05:00:22.210Z,1025.3
2015-12-10T05:01:21.948Z,1025.3
2015-12-10T05:02:21.903Z,1025.2
2015-12-10T05:03:21.843Z,1025.3
2015-12-10T05:04:21.784Z,1025.2
2015-12-10T05:05:21.958Z,1025.2
2015-12-10T05:06:21.664Z,1025.3
2015-12-10T05:07:21.604Z,1025.1
2015-12-10T05:08:21.560Z,1025.2
2015-12-10T05:09:21.485Z,1025.1
2015-12-10T05:10:21.426Z,1025.2
2015-12-10T05:11:21.381Z,1025.2
2015-12-10T05:12:21.305Z,1025.2
2015-12-10T05:13:20.511Z,1025.1
2015-12-10T05:14:21.186Z,1025
2015-12-10T05:15:21.142Z,1025.1
2015-12-10T05:16:21.079Z,1025
2015-12-10T05:17:21.020Z,1025.1
2015-12-10T05:18:20.975Z,1024.9
2015-12-10T05:19:20.900Z,1025
2015-12-10T05:20:20.840Z,1025
2015-12-10T05:21:20.858Z,1025
2015-12-10T05:22:20.721Z,1025
2015-12-10T05:23:20.661Z,1025
2015-12-10T05:24:20.617Z,1025.1
2015-12-10T05:25:20.573Z,1025
2015-12-10T05:26:20.513Z,1025.1
2015-12-10T05:27:20.438Z,1025
2015-12-10T05:28:20.395Z,1025.1
2015-12-10T05:29:20.334Z,1025
2015-12-10T05:30:20.289Z,1025.1
2015-12-10T05:31:20.230Z,1025.2
2015-12-10T05:32:20.171Z,1025
2015-12-10T05:33:20.095Z,1025.1
2015-12-10T05:34:20.035Z,1025.1
2015-12-10T05:35:19.975Z,1025
2015-12-10T05:36:19.931Z,1025
2015-12-10T05:37:20.106Z,1025
2015-12-10T05:38:19.796Z,1025.1
2015-12-10T05:39:20.033Z,1025
2015-12-10T05:40:19.692Z,1025.1
2015-12-10T05:41:19.648Z,1025.1
2015-12-10T05:42:19.589Z,1025
2015-12-10T05:43:19.717Z,1025
2015-12-10T05:44:19.516Z,1025.1
2015-12-10T05:45:19.988Z,1025
2015-12-10T05:46:19.350Z,1025.1
2015-12-10T05:47:19.289Z,1025
2015-12-10T05:48:19.231Z,1024.9
2015-12-10T05:49:19.014Z,1025
2015-12-10T05:50:19.111Z,1025
2015-12-10T05:51:19.051Z,1025
2015-12-10T05:52:19.022Z,1025.1
2015-12-10T05:53:19.135Z,1025.2
2015-12-10T05:54:18.869Z,1025.1
2015-12-10T05:55:18.825Z,1025.1
2015-12-10T05:56:18.765Z,1025.2
2015-12-10T05:57:18.705Z,1025
2015-12-10T05:58:18.630Z,1025.2
2015-12-10T05:59:18.585Z,1025.1
2015-12-10T06:00:18.761Z,1025.2
2015-12-10T06:01:18.482Z,1025.3
2015-12-10T06:02:18.422Z,1025.2
2015-12-10T06:03:18.580Z,1025.2
2015-12-10T06:04:18.303Z,1025.2
2015-12-10T06:05:18.228Z,1025.3
2015-12-10T06:06:18.183Z,1025.2
2015-12-10T06:07:18.124Z,1025.2
2015-12-10T06:08:18.298Z,1025.2
2015-12-10T06:09:18.005Z,1025.2
2015-12-10T06:10:17.960Z,1025.2
2015-12-10T06:11:17.885Z,1025.2
2015-12-10T06:12:17.840Z,1025.1
2015-12-10T06:13:17.765Z,1025.2
2015-12-10T06:14:17.706Z,1025.1
2015-12-10T06:15:17.661Z,1025.2
2015-12-10T06:16:17.664Z,1025
2015-12-10T06:17:17.542Z,1025.2
2015-12-10T06:18:17.467Z,1025.2
2015-12-10T06:19:17.407Z,1025.1
2015-12-10T06:20:17.363Z,1025
2015-12-10T06:21:17.302Z,1025.1
2015-12-10T06:22:17.244Z,1025
2015-12-10T06:23:17.183Z,1025
2015-12-10T06:24:17.327Z,1025.1
2015-12-10T06:25:17.080Z,1025
2015-12-10T06:26:17.019Z,1025
2015-12-10T06:27:17.194Z,1025.2
2015-12-10T06:28:17.087Z,1025
2015-12-10T06:29:16.825Z,1025.1
2015-12-10T06:30:16.780Z,1025
2015-12-10T06:31:16.737Z,1025.1
2015-12-10T06:32:16.677Z,1024.9
2015-12-10T06:33:16.618Z,1025.1
2015-12-10T06:34:16.776Z,1024.9
2015-12-10T06:35:16.497Z,1025.1
2015-12-10T06:36:16.434Z,1025
2015-12-10T06:37:16.359Z,1025
2015-12-10T06:38:16.315Z,1025.1
2015-12-10T06:39:16.240Z,1024.9
2015-12-10T06:40:16.196Z,1025
2015-12-10T06:41:16.152Z,1025
2015-12-10T06:42:16.280Z,1024.8
2015-12-10T06:43:16.017Z,1024.9
2015-12-10T06:44:16.160Z,1025
2015-12-10T06:45:15.912Z,1024.9
2015-12-10T06:46:15.885Z,1024.9
2015-12-10T06:47:15.793Z,1024.8
2015-12-10T06:48:15.733Z,1025
2015-12-10T06:49:15.673Z,1025.1
2015-12-10T06:50:15.629Z,1025.1
2015-12-10T06:51:15.554Z,1025
2015-12-10T06:52:15.745Z,1025.1
2015-12-10T06:53:15.637Z,1025
2015-12-10T06:54:15.390Z,1025.1
2015-12-10T06:55:15.331Z,1025
2015-12-10T06:56:15.256Z,1025.1
2015-12-10T06:57:15.196Z,1025
2015-12-10T06:58:15.136Z,1025
2015-12-10T06:59:15.107Z,1025.1
2015-12-10T07:00:15.032Z,1025.1
2015-12-10T07:01:14.960Z,1025.1
2015-12-10T07:02:14.917Z,1025.1
2015-12-10T07:03:15.279Z,1025
2015-12-10T07:04:14.797Z,1025
2015-12-10T07:05:14.753Z,1025
2015-12-10T07:06:14.913Z,1025.1
2015-12-10T07:07:14.633Z,1025
2015-12-10T07:08:14.777Z,1025
2015-12-10T07:09:14.489Z,1025.1
2015-12-10T07:10:14.443Z,1025
2015-12-10T07:11:14.337Z,1025
2015-12-10T07:12:14.277Z,1024.9
2015-12-10T07:13:14.201Z,1024.9
2015-12-10T07:14:14.147Z,1025.1
2015-12-10T07:15:14.067Z,1024.9
2015-12-10T07:16:14.005Z,1024.9
2015-12-10T07:17:13.939Z,1025
2015-12-10T07:18:13.874Z,1025
2015-12-10T07:19:13.807Z,1025
2015-12-10T07:20:13.948Z,1024.8
2015-12-10T07:21:13.683Z,1024.8
2015-12-10T07:22:13.622Z,1025
2015-12-10T07:23:13.575Z,1024.9
2015-12-10T07:24:13.514Z,1024.9
2015-12-10T07:25:13.453Z,1025
2015-12-10T07:26:13.627Z,1025
2015-12-10T07:27:13.332Z,1024.9
2015-12-10T07:28:13.303Z,1025
2015-12-10T07:29:13.211Z,1025
2015-12-10T07:30:13.386Z,1024.9
2015-12-10T07:31:13.092Z,1025
2015-12-10T07:32:13.031Z,1025
2015-12-10T07:33:12.988Z,1024.8
2015-12-10T07:34:12.928Z,1025
2015-12-10T07:35:12.869Z,1025
2015-12-10T07:36:12.809Z,1024.9
2015-12-10T07:37:12.749Z,1025.1
2015-12-10T07:38:12.705Z,1025
2015-12-10T07:39:12.629Z,1025
2015-12-10T07:40:12.585Z,1024.9
2015-12-10T07:41:12.728Z,1025.1
2015-12-10T07:42:12.466Z,1025
2015-12-10T07:43:12.406Z,1024.9
2015-12-10T07:44:12.565Z,1024.9
2015-12-10T07:45:12.271Z,1024.7
2015-12-10T07:46:12.211Z,1024.7
2015-12-10T07:47:12.167Z,1024.6
2015-12-10T07:48:12.107Z,1024.5
2015-12-10T07:49:12.064Z,1024.8
2015-12-10T07:50:11.989Z,1024.8
2015-12-10T07:51:11.944Z,1024.7
2015-12-10T07:52:11.869Z,1024.7
2015-12-10T07:53:11.840Z,1024.8
2015-12-10T07:54:11.764Z,1024.6
2015-12-10T07:55:11.704Z,1024.6
2015-12-10T07:56:11.641Z,1024.5
2015-12-10T07:57:11.582Z,1024.6
2015-12-10T07:58:11.539Z,1024.7
2015-12-10T07:59:11.462Z,1024.8
2015-12-10T08:00:11.403Z,1024.7
2015-12-10T08:01:11.344Z,1024.8
2015-12-10T08:02:11.299Z,1024.8
2015-12-10T08:03:11.255Z,1024.7
2015-12-10T08:04:11.196Z,1024.7
2015-12-10T08:05:11.119Z,1024.7
2015-12-10T08:06:11.060Z,1024.7
2015-12-10T08:07:11.016Z,1024.8
2015-12-10T08:08:10.987Z,1024.6
2015-12-10T08:09:10.896Z,1024.7
2015-12-10T08:10:10.837Z,1024.7
2015-12-10T08:11:10.777Z,1024.5
2015-12-10T08:12:10.732Z,1024.7
2015-12-10T08:13:10.674Z,1024.6
2015-12-10T08:14:10.613Z,1024.6
2015-12-10T08:15:10.538Z,1024.5
2015-12-10T08:16:10.494Z,1024.6
2015-12-10T08:17:10.450Z,1024.6
2015-12-10T08:18:10.391Z,1024.5
2015-12-10T08:19:09.565Z,1024.4
2015-12-10T08:20:10.271Z,1024.5
2015-12-10T08:21:10.227Z,1024.5
2015-12-10T08:22:10.166Z,1024.4
2015-12-10T08:23:10.107Z,1024.5
2015-12-10T08:24:10.032Z,1024.3
2015-12-10T08:25:09.987Z,1024.4
2015-12-10T08:26:09.927Z,1024.4
2015-12-10T08:27:09.869Z,1024.5
2015-12-10T08:28:09.808Z,1024.5
2015-12-10T08:29:09.749Z,1024.4
2015-12-10T08:30:09.689Z,1024.5
2015-12-10T08:31:09.646Z,1024.5
2015-12-10T08:32:09.601Z,1024.5
2015-12-10T08:33:09.526Z,1024.4
2015-12-10T08:34:09.684Z,1024.3
2015-12-10T08:35:09.418Z,1024.5
2015-12-10T08:36:09.374Z,1024.5
2015-12-10T08:37:09.299Z,1024.3
2015-12-10T08:38:09.442Z,1024.3
2015-12-10T08:39:09.180Z,1024.3
2015-12-10T08:40:09.135Z,1024.2
2015-12-10T08:41:09.091Z,1024.2
2015-12-10T08:42:09.016Z,1024.1
2015-12-10T08:43:08.971Z,1024.2
2015-12-10T08:44:09.146Z,1024.1
2015-12-10T08:45:08.852Z,1024
2015-12-10T08:46:08.824Z,1023.9
2015-12-10T08:47:08.749Z,1023.8
2015-12-10T08:48:08.689Z,1024
2015-12-10T08:49:08.645Z,1023.9
2015-12-10T08:50:08.585Z,1023.9
2015-12-10T08:51:08.541Z,1023.7
2015-12-10T08:52:08.481Z,1024
2015-12-10T08:53:08.656Z,1024.1
2015-12-10T08:54:08.377Z,1024.1
2015-12-10T08:55:08.318Z,1023.9
2015-12-10T08:56:08.273Z,1024.1
2015-12-10T08:57:08.214Z,1024
2015-12-10T08:58:08.170Z,1024.1
2015-12-10T08:59:08.110Z,1024
2015-12-10T09:00:08.065Z,1023.9
2015-12-10T09:01:08.209Z,1024
2015-12-10T09:02:07.962Z,1023.9
2015-12-10T09:03:07.918Z,1023.9
2015-12-10T09:04:07.874Z,1024
2015-12-10T09:05:07.798Z,1024.1
2015-12-10T09:06:07.754Z,1024.1
2015-12-10T09:07:07.710Z,1024.2
2015-12-10T09:08:07.650Z,1024.1
2015-12-10T09:09:07.606Z,1024.2
2015-12-10T09:10:07.546Z,1024.2
2015-12-10T09:11:07.486Z,1024.2
2015-12-10T09:12:07.286Z,1024.2
2015-12-10T09:13:07.398Z,1024.2
2015-12-10T09:14:07.354Z,1024.2
2015-12-10T09:15:07.295Z,1024
2015-12-10T09:16:07.469Z,1024.1
2015-12-10T09:17:07.187Z,1023.9
2015-12-10T09:18:07.128Z,1024
2015-12-10T09:19:07.084Z,1024.1
2015-12-10T09:20:06.258Z,1024
2015-12-10T09:21:06.980Z,1024
2015-12-10T09:22:06.920Z,1023.9
2015-12-10T09:23:06.876Z,1023.8
2015-12-10T09:24:06.816Z,1023.7
2015-12-10T09:25:06.773Z,1023.7
2015-12-10T09:26:06.728Z,1023.8
2015-12-10T09:27:06.653Z,1023.6
2015-12-10T09:28:06.608Z,1023.5
2015-12-10T09:29:06.564Z,1023.5
2015-12-10T09:30:06.708Z,1023.5
2015-12-10T09:31:06.460Z,1023.5
2015-12-10T09:32:06.417Z,1023.5
2015-12-10T09:33:06.372Z,1023.5
2015-12-10T09:34:06.313Z,1023.5
2015-12-10T09:35:06.486Z,1023.5
2015-12-10T09:36:06.208Z,1023.7
2015-12-10T09:37:06.164Z,1023.7
2015-12-10T09:38:06.120Z,1023.5
2015-12-10T09:39:06.061Z,1023.4
2015-12-10T09:40:06.000Z,1023.4
2015-12-10T09:41:05.957Z,1023.5
2015-12-10T09:42:05.928Z,1023.5
2015-12-10T09:43:05.868Z,1023.5
2015-12-10T09:44:05.808Z,1023.5
2015-12-10T09:45:05.764Z,1023.7
2015-12-10T09:46:05.704Z,1023.7
2015-12-10T09:47:04.911Z,1023.7
2015-12-10T09:48:05.601Z,1023.9
2015-12-10T09:49:05.557Z,1023.7
2015-12-10T09:50:05.496Z,1023.8
2015-12-10T09:51:05.468Z,1023.8
2015-12-10T09:52:05.393Z,1023.8
2015-12-10T09:53:05.582Z,1023.8
2015-12-10T09:54:05.305Z,1023.7
2015-12-10T09:55:05.260Z,1023.9
2015-12-10T09:56:05.231Z,1023.8
2015-12-10T09:57:05.156Z,1023.9
2015-12-10T09:58:05.081Z,1024
2015-12-10T09:59:05.037Z,1023.8
2015-12-10T10:00:04.993Z,1024
2015-12-10T10:01:04.964Z,1023.9
2015-12-10T10:02:04.873Z,1023.9
2015-12-10T10:03:04.829Z,1023.9
2015-12-10T10:04:04.754Z,1023.9
2015-12-10T10:05:04.710Z,1023.9
2015-12-10T10:06:04.665Z,1023.9
2015-12-10T10:07:04.605Z,1023.8
2015-12-10T10:08:04.577Z,1023.8
2015-12-10T10:09:04.501Z,1023.7
2015-12-10T10:10:04.457Z,1023.8
2015-12-10T10:11:04.398Z,1023.7
2015-12-10T10:12:04.337Z,1023.5
2015-12-10T10:13:04.294Z,1023.4
2015-12-10T10:14:04.249Z,1023.3
2015-12-10T10:15:04.392Z,1023.3
2015-12-10T10:16:04.130Z,1023.2
2015-12-10T10:17:04.086Z,1023.2
2015-12-10T10:18:04.042Z,1023.2
2015-12-10T10:19:03.981Z,1023.2
2015-12-10T10:20:03.937Z,1023.2
2015-12-10T10:21:03.893Z,1023.1
2015-12-10T10:22:03.834Z,1023.2
2015-12-10T10:23:03.789Z,1023.1
2015-12-10T10:24:03.730Z,1023
2015-12-10T10:25:03.685Z,1023.1
2015-12-10T10:26:03.638Z,1023.1
2015-12-10T10:27:03.594Z,1023
2015-12-10T10:28:03.549Z,1023.2
2015-12-10T10:29:03.491Z,1023.2
2015-12-10T10:30:03.416Z,1023.2
2015-12-10T10:31:03.386Z,1023.1
2015-12-10T10:32:03.343Z,1023
2015-12-10T10:33:03.282Z,1023
2015-12-10T10:34:03.238Z,1023.2
2015-12-10T10:35:03.179Z,1023
2015-12-10T10:36:03.134Z,1023.1
2015-12-10T10:37:03.090Z,1023.3
2015-12-10T10:38:03.030Z,1023.5
2015-12-10T10:39:03.221Z,1023.7
2015-12-10T10:40:02.927Z,1023.7
2015-12-10T10:41:02.882Z,1023.8
2015-12-10T10:42:02.838Z,1023.7
2015-12-10T10:43:02.965Z,1023.8
2015-12-10T10:44:02.703Z,1023.9
2015-12-10T10:45:02.674Z,1023.8
2015-12-10T10:46:02.818Z,1023.8
2015-12-10T10:47:02.571Z,1023.6
2015-12-10T10:48:02.511Z,1023.6
2015-12-10T10:49:02.435Z,1023.6
2015-12-10T10:50:02.376Z,1023.7
2015-12-10T10:51:02.348Z,1023.6
2015-12-10T10:52:02.272Z,1023.3
2015-12-10T10:53:02.242Z,1023
2015-12-10T10:54:02.167Z,1022.8
2015-12-10T10:55:02.108Z,1022.8
2015-12-10T10:56:02.064Z,1022.5
2015-12-10T10:57:02.207Z,1022.7
2015-12-10T10:58:01.959Z,1022.5
2015-12-10T10:59:01.916Z,1022.4
2015-12-10T11:00:01.856Z,1022.4
2015-12-10T11:01:01.811Z,1022.4
2015-12-10T11:02:01.752Z,1022.5
2015-12-10T11:03:00.957Z,1022.5
2015-12-10T11:04:01.663Z,1022.5
2015-12-10T11:05:01.619Z,1022.8
2015-12-10T11:06:01.575Z,1023.2
2015-12-10T11:07:01.515Z,1023.3
2015-12-10T11:08:01.643Z,1023.3
2015-12-10T11:09:01.396Z,1023.4
2015-12-10T11:10:01.211Z,1023.4
2015-12-10T11:11:01.307Z,1023.4
2015-12-10T11:12:00.716Z,1023.3
2015-12-10T11:13:01.187Z,1023.3
2015-12-10T11:14:01.144Z,1023.3
2015-12-10T11:15:01.115Z,1023.1
2015-12-10T11:16:01.040Z,1022.9
2015-12-10T11:17:00.979Z,1022.4
2015-12-10T11:18:00.920Z,1022.2
2015-12-10T11:19:00.876Z,1022.2
2015-12-10T11:20:00.862Z,1022.4
2015-12-10T11:21:00.771Z,1022.4
2015-12-10T11:22:00.946Z,1022.2
2015-12-10T11:23:00.668Z,1022.5
2015-12-10T11:24:00.623Z,1022.9
2015-12-10T11:25:00.564Z,1023
2015-12-10T11:26:00.503Z,1023
2015-12-10T11:27:00.647Z,1023.1
2015-12-10T11:28:00.415Z,1023.1
2015-12-10T11:29:00.356Z,1023
2015-12-10T11:30:00.296Z,1023.1
2015-12-10T11:31:00.220Z,1023
2015-12-10T11:32:00.192Z,1023
2015-12-10T11:33:00.117Z,1023.1
2015-12-10T11:34:00.072Z,1022.6
2015-12-10T11:35:00.029Z,1022.2
2015-12-10T11:35:59.953Z,1021.8
2015-12-10T11:36:59.909Z,1021.9
2015-12-10T11:37:59.865Z,1021.8
2015-12-10T11:38:59.821Z,1022
2015-12-10T11:39:59.761Z,1021.8
2015-12-10T11:40:59.701Z,1021.8
2015-12-10T11:41:59.641Z,1021.9
2015-12-10T11:42:59.613Z,1021.9
2015-12-10T11:43:59.569Z,1021.9
2015-12-10T11:44:59.509Z,1022
2015-12-10T11:45:59.450Z,1022
2015-12-10T11:46:59.406Z,1021.9
2015-12-10T11:47:59.361Z,1021.9
2015-12-10T11:48:59.302Z,1021.7
2015-12-10T11:49:59.258Z,1021.7
2015-12-10T11:50:59.214Z,1021.7
2015-12-10T11:51:59.183Z,1021.7
2015-12-10T11:52:59.106Z,1021.8
2015-12-10T11:53:59.063Z,1021.9
2015-12-10T11:54:59.003Z,1021.9
2015-12-10T11:55:58.975Z,1021.8
2015-12-10T11:56:58.930Z,1021.7
2015-12-10T11:57:58.870Z,1021.6
2015-12-10T11:58:58.841Z,1021.6
2015-12-10T11:59:58.766Z,1021.4
2015-12-10T12:00:58.707Z,1021.4
2015-12-10T12:01:58.678Z,1021.4
2015-12-10T12:02:58.619Z,1021.4
2015-12-10T12:03:58.591Z,1021.5
2015-12-10T12:04:58.531Z,1021.5
2015-12-10T12:05:58.471Z,1021.6
2015-12-10T12:06:58.427Z,1021.5
2015-12-10T12:07:58.383Z,1021.7
2015-12-10T12:08:58.338Z,1021.6
2015-12-10T12:09:58.278Z,1021.3
2015-12-10T12:10:58.235Z,1021.3
2015-12-10T12:11:58.206Z,1021.1
2015-12-10T12:12:58.146Z,1021
2015-12-10T12:13:58.102Z,1021
2015-12-10T12:14:58.027Z,1021.3
2015-12-10T12:15:58.186Z,1021.3
2015-12-10T12:16:57.923Z,1021.4
2015-12-10T12:17:57.895Z,1021.6
2015-12-10T12:18:57.850Z,1021.7
2015-12-10T12:19:57.790Z,1021.7
2015-12-10T12:20:57.731Z,1021.8
2015-12-10T12:21:57.686Z,1021.9
2015-12-10T12:22:57.643Z,1021.8
2015-12-10T12:23:57.582Z,1021.8
2015-12-10T12:24:57.538Z,1021.8
2015-12-10T12:25:57.479Z,1021.7
2015-12-10T12:26:57.435Z,1021.8
2015-12-10T12:27:57.391Z,1021.9
2015-12-10T12:28:57.330Z,1021.9
2015-12-10T12:29:57.505Z,1022
2015-12-10T12:30:57.210Z,1022
2015-12-10T12:31:57.167Z,1022.1
2015-12-10T12:32:57.123Z,1021.9
2015-12-10T12:33:57.060Z,1022
2015-12-10T12:34:57.001Z,1021.8
2015-12-10T12:35:56.957Z,1022